createdAt,value
2023-02-06T00:01:35.452Z,7.65
2023-02-06T00:04:02.798Z,11.25
2023-02-06T00:06:29.888Z,7.10
2023-02-06T00:08:56.978Z,6.68
2023-02-06T00:11:24.788Z,8.43
2023-02-06T00:13:52.195Z,8.35
2023-02-06T00:16:20.987Z,15.13
2023-02-06T00:18:49.323Z,7.38
2023-02-06T00:21:20.582Z,7.15
2023-02-06T00:23:49.111Z,8.85
2023-02-06T00:26:16.233Z,11.90
2023-02-06T00:28:44.123Z,10.50
2023-02-06T00:31:11.309Z,6.95
2023-02-06T00:33:38.599Z,9.00
2023-02-06T00:36:06.198Z,7.65
2023-02-06T00:38:33.616Z,6.72
2023-02-06T00:41:00.669Z,12.20
2023-02-06T00:43:27.830Z,7.38
2023-02-06T00:45:56.157Z,13.77
2023-02-06T00:48:24.372Z,11.55
2023-02-06T00:50:53.144Z,7.13
2023-02-06T00:53:20.439Z,6.55
2023-02-06T00:55:47.483Z,4.88
2023-02-06T00:58:14.528Z,6.57
2023-02-06T01:00:41.597Z,5.50
2023-02-06T01:03:08.785Z,11.80
2023-02-06T01:05:36.139Z,5.15
2023-02-06T01:08:04.597Z,9.57
2023-02-06T01:10:33.007Z,6.38
2023-02-06T01:13:00.504Z,7.88
2023-02-06T01:15:27.756Z,10.02
2023-02-06T01:17:54.768Z,8.07
2023-02-06T01:20:23.260Z,10.25
2023-02-06T01:22:51.008Z,6.93
2023-02-06T01:25:18.095Z,5.40
2023-02-06T01:27:45.358Z,9.13
2023-02-06T01:30:12.943Z,5.25
2023-02-06T01:32:41.388Z,7.55
2023-02-06T01:35:10.746Z,8.57
2023-02-06T01:37:38.847Z,6.35
2023-02-06T01:40:08.684Z,13.45
2023-02-06T01:42:37.446Z,8.77
2023-02-06T01:45:32.204Z,9.80
2023-02-06T01:48:10.378Z,11.88
2023-02-06T01:50:39.408Z,8.05
2023-02-06T01:53:07.838Z,10.02
2023-02-06T01:55:37.606Z,8.50
2023-02-06T01:58:06.135Z,7.93
2023-02-06T02:00:33.809Z,5.95
2023-02-06T02:03:02.281Z,10.95
2023-02-06T02:05:30.229Z,7.50
2023-02-06T02:08:02.390Z,10.50
2023-02-06T02:10:31.063Z,8.50
2023-02-06T02:12:58.906Z,8.98
2023-02-06T02:16:00.376Z,11.80
2023-02-06T02:18:33.539Z,9.88
2023-02-06T02:21:18.967Z,11.38
2023-02-06T02:24:31.712Z,8.85
2023-02-06T02:27:30.060Z,12.40
2023-02-06T02:30:35.024Z,13.10
2023-02-06T02:33:08.283Z,8.25
2023-02-06T02:36:01.595Z,8.80
2023-02-06T02:38:46.735Z,9.48
2023-02-06T02:41:22.248Z,9.40
2023-02-06T02:44:19.149Z,6.03
2023-02-06T02:46:52.520Z,8.35
2023-02-06T02:49:24.631Z,7.05
2023-02-06T02:51:53.317Z,9.48
2023-02-06T02:54:20.496Z,10.75
2023-02-06T02:56:47.553Z,9.38
2023-02-06T02:59:29.454Z,11.52
2023-02-06T03:01:59.172Z,7.70
2023-02-06T03:04:35.439Z,15.02
2023-02-06T03:07:10.400Z,10.98
2023-02-06T03:09:45.645Z,12.38
2023-02-06T03:12:31.155Z,12.00
2023-02-06T03:15:04.253Z,8.60
2023-02-06T03:17:41.174Z,8.27
2023-02-06T03:20:10.907Z,5.78
2023-02-06T03:22:39.054Z,7.80
2023-02-06T03:25:12.674Z,13.77
2023-02-06T03:27:42.859Z,10.50
2023-02-06T03:30:12.454Z,11.15
2023-02-06T03:32:46.582Z,14.23
2023-02-06T03:35:29.650Z,11.07
2023-02-06T03:37:56.880Z,11.57
2023-02-06T03:40:26.880Z,9.25
2023-02-06T03:42:59.008Z,7.72
2023-02-06T03:45:38.679Z,9.30
2023-02-06T03:48:15.281Z,8.23
2023-02-06T03:50:44.592Z,9.02
2023-02-06T03:53:13.994Z,7.53
2023-02-06T03:55:43.421Z,9.73
2023-02-06T03:58:14.335Z,9.40
2023-02-06T04:00:44.206Z,10.38
2023-02-06T04:03:13.316Z,7.75
2023-02-06T04:05:40.852Z,9.68
2023-02-06T04:08:08.212Z,8.27
2023-02-06T04:10:35.235Z,14.57
2023-02-06T04:13:02.268Z,6.55
2023-02-06T04:15:29.349Z,10.10
2023-02-06T04:18:01.533Z,13.13
2023-02-06T04:20:29.827Z,8.75
2023-02-06T04:22:58.368Z,8.95
2023-02-06T04:25:25.960Z,10.95
2023-02-06T04:27:53.106Z,9.63
2023-02-06T04:30:20.153Z,9.52
2023-02-06T04:32:47.239Z,13.07
2023-02-06T04:35:14.223Z,8.30
2023-02-06T04:37:41.315Z,13.13
2023-02-06T04:40:08.725Z,14.23
2023-02-06T04:42:35.972Z,11.35
2023-02-06T04:45:03.059Z,9.85
2023-02-06T04:47:30.096Z,7.80
2023-02-06T04:49:57.093Z,10.35
2023-02-06T04:52:24.140Z,9.48
2023-02-06T04:54:51.170Z,13.27
2023-02-06T04:57:18.235Z,9.18
2023-02-06T04:59:45.401Z,11.50
2023-02-06T05:02:12.512Z,8.15
2023-02-06T05:04:39.674Z,9.85
2023-02-06T05:07:06.759Z,13.25
2023-02-06T05:09:33.764Z,9.38
2023-02-06T05:15:41.347Z,13.70
2023-02-06T05:18:44.859Z,11.50
2023-02-06T05:21:30.165Z,9.20
2023-02-06T05:23:57.230Z,10.82
2023-02-06T05:26:24.270Z,15.27
2023-02-06T05:28:51.412Z,10.10
2023-02-06T05:31:20.137Z,13.60
2023-02-06T05:33:52.770Z,13.93
2023-02-06T05:39:48.822Z,12.40
2023-02-06T05:42:15.850Z,8.57
2023-02-06T05:44:42.898Z,11.00
2023-02-06T05:47:10.016Z,10.85
2023-02-06T05:49:37.095Z,10.63
2023-02-06T05:52:04.273Z,9.90
2023-02-06T05:54:31.294Z,11.90
2023-02-06T05:56:58.362Z,13.32
2023-02-06T05:59:25.569Z,8.45
2023-02-06T06:01:52.684Z,12.73
2023-02-06T06:04:19.819Z,14.23
2023-02-06T06:06:46.981Z,9.80
2023-02-06T06:09:14.016Z,9.60
2023-02-06T06:11:41.063Z,10.43
2023-02-06T06:14:08.247Z,8.43
2023-02-06T06:16:35.324Z,12.45
2023-02-06T06:19:02.350Z,13.65
2023-02-06T06:21:29.394Z,9.85
2023-02-06T06:23:56.447Z,10.52
2023-02-06T06:26:23.462Z,7.43
2023-02-06T06:28:50.524Z,8.63
2023-02-06T06:31:17.927Z,9.68
2023-02-06T06:33:45.876Z,9.73
2023-02-06T06:36:14.572Z,10.57
2023-02-06T06:38:42.151Z,7.75
2023-02-06T06:41:09.214Z,12.00
2023-02-06T06:43:36.339Z,5.45
2023-02-06T06:46:05.474Z,7.80
2023-02-06T06:48:33.260Z,11.80
2023-02-06T06:51:00.320Z,9.80
2023-02-06T06:53:27.327Z,10.55
2023-02-06T06:55:54.412Z,11.38
2023-02-06T06:58:21.513Z,11.15
2023-02-06T07:00:48.771Z,10.25
2023-02-06T07:03:15.870Z,11.77
2023-02-06T07:05:43.029Z,9.05
2023-02-06T07:08:10.270Z,11.18
2023-02-06T07:10:37.276Z,10.20
2023-02-06T07:13:04.584Z,9.65
2023-02-06T07:15:31.902Z,10.93
2023-02-06T07:17:58.957Z,7.30
2023-02-06T07:20:26.042Z,7.45
2023-02-06T07:22:53.764Z,8.57
2023-02-06T07:25:21.555Z,8.82
2023-02-06T07:27:48.646Z,7.75
2023-02-06T07:30:15.839Z,10.88
2023-02-06T07:32:42.868Z,11.63
2023-02-06T07:35:09.979Z,11.43
2023-02-06T07:37:37.059Z,11.73
2023-02-06T07:40:05.659Z,15.77
2023-02-06T07:42:33.868Z,8.05
2023-02-06T07:45:01.202Z,10.23
2023-02-06T07:47:28.217Z,12.23
2023-02-06T07:49:55.195Z,14.07
2023-02-06T07:52:22.652Z,11.07
2023-02-06T07:54:49.702Z,9.75
2023-02-06T07:57:17.728Z,16.33
2023-02-06T07:59:44.836Z,12.73
2023-02-06T08:02:12.831Z,10.85
2023-02-06T08:04:40.066Z,10.05
2023-02-06T08:07:11.275Z,10.27
2023-02-06T08:09:38.347Z,10.35
2023-02-06T08:15:46.475Z,10.23
2023-02-06T08:18:13.438Z,8.90
2023-02-06T08:20:40.549Z,11.20
2023-02-06T08:23:08.394Z,11.30
2023-02-06T08:25:35.861Z,9.60
2023-02-06T08:28:03.238Z,11.98
2023-02-06T08:30:32.694Z,11.73
2023-02-06T08:32:59.733Z,12.18
2023-02-06T08:35:26.739Z,8.90
2023-02-06T08:37:53.783Z,10.88
2023-02-06T08:40:21.440Z,8.98
2023-02-06T08:42:51.781Z,10.82
2023-02-06T08:45:18.940Z,12.68
2023-02-06T08:47:46.000Z,11.40
2023-02-06T08:50:13.161Z,14.25
2023-02-06T08:52:40.554Z,11.25
2023-02-06T08:55:08.358Z,13.18
2023-02-06T08:57:35.459Z,8.63
2023-02-06T09:00:02.715Z,11.57
2023-02-06T09:02:29.851Z,9.82
2023-02-06T09:04:56.899Z,9.98
2023-02-06T09:07:24.742Z,17.83
2023-02-06T09:09:51.760Z,10.05
2023-02-06T09:12:18.856Z,10.82
2023-02-06T09:14:46.127Z,8.80
2023-02-06T09:17:13.311Z,9.18
2023-02-06T09:19:40.382Z,9.95
2023-02-06T09:22:07.440Z,14.13
2023-02-06T09:24:34.478Z,13.13
2023-02-06T09:27:01.519Z,10.85
2023-02-06T09:29:31.951Z,16.05
2023-02-06T09:31:59.645Z,11.52
2023-02-06T09:34:27.385Z,7.13
2023-02-06T09:36:56.934Z,11.15
2023-02-06T09:39:25.184Z,13.00
2023-02-06T09:42:03.607Z,10.65
2023-02-06T09:44:51.416Z,8.73
2023-02-06T09:47:24.777Z,10.82
2023-02-06T09:50:08.232Z,11.90
2023-02-06T09:52:53.769Z,9.75
2023-02-06T09:55:36.379Z,14.90
2023-02-06T09:58:26.958Z,14.20
2023-02-06T10:01:03.422Z,12.10
2023-02-06T10:03:54.835Z,12.57
2023-02-06T10:06:36.192Z,16.42
2023-02-06T10:09:08.305Z,6.07
2023-02-06T10:11:43.315Z,11.20
2023-02-06T10:14:24.841Z,9.30
2023-02-06T10:17:06.075Z,12.05
2023-02-06T10:20:07.115Z,12.25
2023-02-06T10:23:03.640Z,8.18
2023-02-06T10:25:38.148Z,8.98
2023-02-06T10:28:24.738Z,12.85
2023-02-06T10:30:57.998Z,8.98
2023-02-06T10:33:36.392Z,12.60
2023-02-06T10:36:21.820Z,12.57
2023-02-06T10:39:10.425Z,12.02
2023-02-06T10:42:04.115Z,8.65
2023-02-06T10:45:19.633Z,9.05
2023-02-06T10:48:10.879Z,11.55
2023-02-06T10:51:00.391Z,7.63
2023-02-06T10:53:34.102Z,10.70
2023-02-06T10:56:08.560Z,8.38
2023-02-06T10:58:48.161Z,11.00
2023-02-06T11:01:26.189Z,9.82
2023-02-06T11:04:12.602Z,8.73
2023-02-06T11:06:42.561Z,14.73
2023-02-06T11:09:10.776Z,11.98
2023-02-06T11:11:41.382Z,10.60
2023-02-06T11:14:17.274Z,9.05
2023-02-06T11:16:46.350Z,8.90
2023-02-06T11:19:18.634Z,11.93
2023-02-06T11:21:51.046Z,10.02
2023-02-06T11:24:21.873Z,15.32
2023-02-06T11:26:52.333Z,13.15
2023-02-06T11:29:26.193Z,8.15
2023-02-06T11:31:58.733Z,7.22
2023-02-06T11:34:28.558Z,10.85
2023-02-06T11:37:02.258Z,8.68
2023-02-06T11:39:40.005Z,10.82
2023-02-06T11:42:21.544Z,9.15
2023-02-06T11:44:49.747Z,7.65
2023-02-06T11:47:37.430Z,11.35
2023-02-06T11:50:14.242Z,9.15
2023-02-06T11:52:46.643Z,11.30
2023-02-06T11:55:36.948Z,7.90
2023-02-06T11:58:12.850Z,11.02
2023-02-06T12:01:04.398Z,10.93
2023-02-06T12:03:38.939Z,8.50
2023-02-06T12:06:09.120Z,9.25
2023-02-06T12:08:51.863Z,10.75
2023-02-06T12:11:46.531Z,12.00
2023-02-06T12:14:17.624Z,9.35
2023-02-06T12:16:47.249Z,6.47
2023-02-06T12:19:20.411Z,10.27
2023-02-06T12:22:02.619Z,10.15
2023-02-06T12:24:45.534Z,12.82
2023-02-06T12:27:18.773Z,7.75
2023-02-06T12:30:03.268Z,9.68
2023-02-06T12:32:37.815Z,9.05
2023-02-06T12:35:21.211Z,10.98
2023-02-06T12:38:00.296Z,9.68
2023-02-06T12:40:42.300Z,12.85
2023-02-06T12:43:14.662Z,9.80
2023-02-06T12:45:50.456Z,9.23
2023-02-06T12:49:02.493Z,11.40
2023-02-06T12:51:43.004Z,11.38
2023-02-06T12:54:30.492Z,12.25
2023-02-06T12:57:15.574Z,8.45
2023-02-06T12:59:58.186Z,8.40
2023-02-06T13:03:10.911Z,9.60
2023-02-06T13:06:13.030Z,7.95
2023-02-06T13:08:59.248Z,9.55
2023-02-06T13:11:40.783Z,9.23
2023-02-06T13:14:21.936Z,7.55
2023-02-06T13:16:59.940Z,11.85
2023-02-06T13:19:31.894Z,8.93
2023-02-06T13:22:11.295Z,19.88
2023-02-06T13:24:40.661Z,12.40
2023-02-06T13:27:07.667Z,7.18
2023-02-06T13:29:40.096Z,11.32
2023-02-06T13:32:18.275Z,8.68
2023-02-06T13:35:02.380Z,10.68
2023-02-06T13:37:41.305Z,10.45
2023-02-06T13:40:32.587Z,11.10
2023-02-06T13:43:04.383Z,11.15
2023-02-06T13:45:37.456Z,6.40
2023-02-06T13:48:22.777Z,11.23
2023-02-06T13:51:17.564Z,9.20
2023-02-06T13:54:09.353Z,11.00
2023-02-06T13:56:42.328Z,12.45
2023-02-06T13:59:18.080Z,9.60
2023-02-06T14:01:45.713Z,15.10
2023-02-06T14:04:23.917Z,16.13
2023-02-06T14:07:30.427Z,11.55
2023-02-06T14:10:29.773Z,9.75
2023-02-06T14:13:25.406Z,14.02
2023-02-06T14:16:18.858Z,9.38
2023-02-06T14:18:53.821Z,7.72
2023-02-06T14:21:35.950Z,7.57
2023-02-06T14:24:28.120Z,8.65
2023-02-06T14:27:08.157Z,10.82
2023-02-06T14:29:53.162Z,7.60
2023-02-06T14:32:57.177Z,7.22
2023-02-06T14:35:49.096Z,8.48
2023-02-06T14:38:28.163Z,7.57
2023-02-06T14:40:59.817Z,8.73
2023-02-06T14:43:30.441Z,9.88
2023-02-06T14:46:07.506Z,9.40
2023-02-06T14:48:57.594Z,12.80
2023-02-06T14:51:37.306Z,11.05
2023-02-06T14:54:07.076Z,10.73
2023-02-06T14:56:39.066Z,11.75
2023-02-06T14:59:24.135Z,8.15
2023-02-06T15:01:53.983Z,13.70
2023-02-06T15:04:26.468Z,7.20
2023-02-06T15:07:02.204Z,12.93
2023-02-06T15:09:36.041Z,11.30
2023-02-06T15:12:24.281Z,11.40
2023-02-06T15:14:55.259Z,10.25
2023-02-06T15:17:27.013Z,12.18
2023-02-06T15:19:54.543Z,12.07
2023-02-06T15:22:29.516Z,12.23
2023-02-06T15:25:23.794Z,8.07
2023-02-06T15:28:02.224Z,13.73
2023-02-06T15:30:30.166Z,16.85
2023-02-06T15:32:57.485Z,15.43
2023-02-06T15:35:32.472Z,20.65
2023-02-06T15:38:14.120Z,12.07
2023-02-06T15:41:09.007Z,13.27
2023-02-06T15:43:36.689Z,12.13
2023-02-06T15:46:05.374Z,11.70
2023-02-06T15:48:54.048Z,14.13
2023-02-06T15:51:31.027Z,15.55
2023-02-06T15:54:17.911Z,14.45
2023-02-06T15:56:50.933Z,13.75
2023-02-06T15:59:24.462Z,13.85
2023-02-06T16:01:54.583Z,15.77
2023-02-06T16:04:35.310Z,25.65
2023-02-06T16:07:11.133Z,16.58
2023-02-06T16:09:56.953Z,19.67
2023-02-06T16:12:25.087Z,13.30
2023-02-06T16:14:57.295Z,16.20
2023-02-06T16:17:36.663Z,16.13
2023-02-06T16:20:07.739Z,18.60
2023-02-06T16:22:38.036Z,24.75
2023-02-06T16:25:32.603Z,13.57
2023-02-06T16:28:00.692Z,13.45
2023-02-06T16:30:34.255Z,12.65
2023-02-06T16:33:16.803Z,10.45
2023-02-06T16:35:44.349Z,13.90
2023-02-06T16:38:11.535Z,11.43
2023-02-06T16:40:39.504Z,11.57
2023-02-06T16:43:12.249Z,10.90
2023-02-06T16:45:39.361Z,11.93
2023-02-06T16:48:12.872Z,12.32
2023-02-06T16:50:41.734Z,12.60
2023-02-06T16:53:18.767Z,12.63
2023-02-06T16:55:46.448Z,10.98
2023-02-06T16:58:22.122Z,19.25
2023-02-06T17:00:51.051Z,14.57
2023-02-06T17:03:18.714Z,14.40
2023-02-06T17:05:48.832Z,23.88
2023-02-06T17:08:19.560Z,13.88
2023-02-06T17:10:47.354Z,17.13
2023-02-06T17:13:17.264Z,13.57
2023-02-06T17:15:47.175Z,14.68
2023-02-06T17:18:17.336Z,14.35
2023-02-06T17:20:48.902Z,11.38
2023-02-06T17:23:16.255Z,19.17
2023-02-06T17:25:45.181Z,13.88
2023-02-06T17:28:16.249Z,12.85
2023-02-06T17:30:44.763Z,22.98
2023-02-06T17:33:12.403Z,18.98
2023-02-06T17:35:41.830Z,22.70
2023-02-06T17:38:10.349Z,16.08
2023-02-06T17:40:40.529Z,20.98
2023-02-06T17:43:08.512Z,19.67
2023-02-06T17:45:40.048Z,18.98
2023-02-06T17:48:08.248Z,25.02
2023-02-06T17:50:37.772Z,20.25
2023-02-06T17:53:07.385Z,28.50
2023-02-06T17:55:36.485Z,19.52
2023-02-06T17:58:04.695Z,22.00
2023-02-06T18:00:32.761Z,19.55
2023-02-06T18:03:00.623Z,23.38
2023-02-06T18:05:28.150Z,27.70
2023-02-06T18:07:55.721Z,25.20
2023-02-06T18:10:26.095Z,27.80
2023-02-06T18:12:53.894Z,30.40
2023-02-06T18:15:22.069Z,21.63
2023-02-06T18:17:49.908Z,18.70
2023-02-06T18:20:18.434Z,20.25
2023-02-06T18:22:47.063Z,28.13
2023-02-06T18:25:15.997Z,24.95
2023-02-06T18:27:46.665Z,20.38
2023-02-06T18:30:15.825Z,31.55
2023-02-06T18:32:43.682Z,22.05
2023-02-06T18:35:11.882Z,17.38
2023-02-06T18:37:39.756Z,24.55
2023-02-06T18:40:09.255Z,27.92
2023-02-06T18:42:52.650Z,36.38
2023-02-06T18:45:25.859Z,28.13
2023-02-06T18:47:53.430Z,18.13
2023-02-06T18:50:22.478Z,18.73
2023-02-06T18:52:51.214Z,20.58
2023-02-06T18:55:19.375Z,21.75
2023-02-06T18:57:47.987Z,18.70
2023-02-06T19:00:18.868Z,15.52
2023-02-06T19:02:47.008Z,25.73
2023-02-06T19:05:15.012Z,24.85
2023-02-06T19:07:42.647Z,26.88
2023-02-06T19:10:13.654Z,25.40
2023-02-06T19:12:41.657Z,21.88
2023-02-06T19:15:10.252Z,26.05
2023-02-06T19:17:38.377Z,20.42
2023-02-06T19:20:07.062Z,18.35
2023-02-06T19:22:36.378Z,19.25
2023-02-06T19:25:07.141Z,25.15
2023-02-06T19:27:36.742Z,20.98
2023-02-06T19:30:05.427Z,25.17
2023-02-06T19:32:33.620Z,17.85
2023-02-06T19:35:01.614Z,21.45
2023-02-06T19:37:28.987Z,18.95
2023-02-06T19:39:56.866Z,16.55
2023-02-06T19:42:26.109Z,23.15
2023-02-06T19:44:57.230Z,17.23
2023-02-06T19:47:25.210Z,19.35
2023-02-06T19:49:53.838Z,23.05
2023-02-06T19:52:21.815Z,29.65
2023-02-06T19:54:49.266Z,20.52
2023-02-06T19:57:19.851Z,23.00
2023-02-06T19:59:50.940Z,23.02
2023-02-06T20:02:18.925Z,19.25
2023-02-06T20:04:46.464Z,18.88
2023-02-06T20:07:18.909Z,20.92
2023-02-06T20:09:46.578Z,21.58
2023-02-06T20:12:17.339Z,24.58
2023-02-06T20:14:45.351Z,17.88
2023-02-06T20:17:13.601Z,21.92
2023-02-06T20:19:41.417Z,16.25
2023-02-06T20:22:09.576Z,17.05
2023-02-06T20:24:37.412Z,20.38
2023-02-06T20:27:08.411Z,23.35
2023-02-06T20:29:43.479Z,22.42
2023-02-06T20:32:12.707Z,17.40
2023-02-06T20:34:43.632Z,15.85
2023-02-06T20:37:11.495Z,18.60
2023-02-06T20:39:39.475Z,20.45
2023-02-06T20:42:09.002Z,17.65
2023-02-06T20:44:36.488Z,20.90
2023-02-06T20:47:04.067Z,29.48
2023-02-06T20:49:31.894Z,28.67
2023-02-06T20:51:59.861Z,35.20
2023-02-06T20:54:28.107Z,27.50
2023-02-06T20:56:56.696Z,32.35
2023-02-06T20:59:24.370Z,27.67
2023-02-06T21:01:51.893Z,24.35
2023-02-06T21:04:20.101Z,25.27
2023-02-06T21:06:51.261Z,36.88
2023-02-06T21:09:20.253Z,28.05
2023-02-06T21:11:50.199Z,29.13
2023-02-06T21:14:18.441Z,26.13
2023-02-06T21:16:46.102Z,24.13
2023-02-06T21:19:15.759Z,24.83
2023-02-06T21:21:46.072Z,19.20
2023-02-06T21:24:14.432Z,23.10
2023-02-06T21:26:41.574Z,20.67
2023-02-06T21:29:10.280Z,22.65
2023-02-06T21:31:38.966Z,24.98
2023-02-06T21:34:16.269Z,29.45
2023-02-06T21:36:44.165Z,26.40
2023-02-06T21:39:19.502Z,24.38
2023-02-06T21:41:47.676Z,29.00
2023-02-06T21:44:14.776Z,33.22
2023-02-06T21:46:44.970Z,24.13
2023-02-06T21:49:12.900Z,29.95
2023-02-06T21:51:40.233Z,26.17
2023-02-06T21:54:07.772Z,21.58
2023-02-06T21:56:38.367Z,25.75
2023-02-06T21:59:07.304Z,22.58
2023-02-06T22:01:34.661Z,22.45
2023-02-06T22:04:03.629Z,21.13
2023-02-06T22:06:31.118Z,22.23
2023-02-06T22:09:05.549Z,27.77
2023-02-06T22:11:33.587Z,25.50
2023-02-06T22:14:05.898Z,26.85
2023-02-06T22:16:33.647Z,30.40
2023-02-06T22:19:03.372Z,25.48
2023-02-06T22:21:32.181Z,35.60
2023-02-06T22:24:05.583Z,28.50
2023-02-06T22:26:36.941Z,20.15
2023-02-06T22:29:05.010Z,24.73
2023-02-06T22:31:34.360Z,29.17
2023-02-06T22:34:01.796Z,26.13
2023-02-06T22:36:33.374Z,24.92
2023-02-06T22:39:04.429Z,29.13
2023-02-06T22:41:31.471Z,25.48
2023-02-06T22:43:58.936Z,25.77
2023-02-06T22:46:29.260Z,27.30
2023-02-06T22:48:56.784Z,25.17
2023-02-06T22:51:24.545Z,26.17
2023-02-06T22:53:52.306Z,28.13
2023-02-06T22:56:31.446Z,27.23
2023-02-06T22:59:20.243Z,27.45
2023-02-06T23:01:50.806Z,21.23
2023-02-06T23:04:21.897Z,26.85
2023-02-06T23:06:50.051Z,25.80
2023-02-06T23:09:23.652Z,22.42
2023-02-06T23:11:51.496Z,28.33
2023-02-06T23:14:19.228Z,27.77
2023-02-06T23:16:47.136Z,29.38
2023-02-06T23:19:15.112Z,32.95
2023-02-06T23:21:44.403Z,30.58
2023-02-06T23:24:12.212Z,26.48
2023-02-06T23:26:42.390Z,31.90
2023-02-06T23:29:15.848Z,28.88
2023-02-06T23:31:43.560Z,32.20
2023-02-06T23:34:11.146Z,32.78
2023-02-06T23:36:38.205Z,33.88
2023-02-06T23:39:06.191Z,31.38
2023-02-06T23:41:34.138Z,31.88
2023-02-06T23:44:04.871Z,34.47
2023-02-06T23:46:34.805Z,29.88
2023-02-06T23:49:02.293Z,35.08
2023-02-06T23:51:29.920Z,36.35
2023-02-06T23:53:57.126Z,36.67
2023-02-06T23:56:27.255Z,29.60
2023-02-06T23:58:55.539Z,29.27
